createdAt,value
2023-05-05T00:01:48.898Z,50.34
2023-05-05T00:04:17.605Z,50.65
2023-05-05T00:06:45.450Z,50.56
2023-05-05T00:09:13.295Z,50.81
2023-05-05T00:11:41.012Z,50.66
2023-05-05T00:14:08.691Z,50.61
2023-05-05T00:16:36.503Z,50.45
2023-05-05T00:19:05.746Z,50.80
2023-05-05T00:21:33.428Z,50.15
2023-05-05T00:24:01.144Z,50.08
2023-05-05T00:26:28.820Z,49.98
2023-05-05T00:28:56.508Z,50.40
2023-05-05T00:31:24.324Z,50.71
2023-05-05T00:33:52.036Z,51.95
2023-05-05T00:36:21.075Z,51.06
2023-05-05T00:38:48.786Z,51.51
2023-05-05T00:41:16.416Z,51.07
2023-05-05T00:43:44.047Z,50.77
2023-05-05T00:46:19.911Z,51.20
2023-05-05T00:48:47.592Z,51.21
2023-05-05T00:51:16.928Z,51.42
2023-05-05T00:53:46.255Z,51.43
2023-05-05T00:56:14.353Z,51.96
2023-05-05T00:58:42.788Z,52.13
2023-05-05T01:01:12.020Z,51.57
2023-05-05T01:03:40.616Z,51.92
2023-05-05T01:06:17.187Z,51.75
2023-05-05T01:08:56.150Z,52.29
2023-05-05T01:11:28.121Z,51.95
2023-05-05T01:14:01.931Z,52.04
2023-05-05T01:16:31.894Z,52.43
2023-05-05T01:19:02.256Z,52.93
2023-05-05T01:21:33.286Z,52.58
2023-05-05T01:24:34.454Z,53.08
2023-05-05T01:27:21.149Z,52.89
2023-05-05T01:30:02.076Z,53.20
2023-05-05T01:32:33.296Z,53.34
2023-05-05T01:35:02.778Z,53.21
2023-05-05T01:37:31.792Z,53.15
2023-05-05T01:40:01.650Z,53.59
2023-05-05T01:42:30.559Z,53.38
2023-05-05T01:44:58.627Z,53.12
2023-05-05T01:47:27.481Z,53.37
2023-05-05T01:49:56.674Z,53.75
2023-05-05T01:52:25.154Z,53.61
2023-05-05T01:54:53.824Z,53.41
2023-05-05T01:57:22.432Z,54.13
2023-05-05T01:59:51.496Z,53.48
2023-05-05T02:02:20.121Z,54.32
2023-05-05T02:04:49.188Z,53.99
2023-05-05T02:07:18.373Z,54.40
2023-05-05T02:09:46.330Z,54.15
2023-05-05T02:12:14.338Z,54.61
2023-05-05T02:14:43.488Z,54.81
2023-05-05T02:17:12.282Z,54.79
2023-05-05T02:19:41.567Z,54.91
2023-05-05T02:22:09.373Z,54.75
2023-05-05T02:24:38.514Z,55.36
2023-05-05T02:27:07.605Z,55.35
2023-05-05T02:29:36.846Z,55.25
2023-05-05T02:32:07.217Z,54.76
2023-05-05T02:34:37.129Z,54.81
2023-05-05T02:37:08.195Z,55.22
2023-05-05T02:39:43.498Z,54.72
2023-05-05T02:42:12.088Z,55.18
2023-05-05T02:44:42.592Z,54.74
2023-05-05T02:47:10.287Z,54.95
2023-05-05T02:49:38.030Z,54.53
2023-05-05T02:52:05.732Z,55.14
2023-05-05T02:54:33.967Z,55.39
2023-05-05T02:57:03.097Z,55.32
2023-05-05T02:59:34.901Z,54.98
2023-05-05T03:02:11.406Z,55.81
2023-05-05T03:04:40.802Z,56.01
2023-05-05T03:07:12.126Z,56.10
2023-05-05T03:09:41.655Z,56.26
2023-05-05T03:12:12.032Z,56.40
2023-05-05T03:14:42.236Z,56.36
2023-05-05T03:17:10.987Z,56.55
2023-05-05T03:19:39.996Z,56.67
2023-05-05T03:22:07.731Z,56.72
2023-05-05T03:24:35.483Z,57.00
2023-05-05T03:27:03.230Z,56.91
2023-05-05T03:29:32.317Z,57.36
2023-05-05T03:32:00.975Z,57.48
2023-05-05T03:34:28.646Z,57.31
2023-05-05T03:36:56.362Z,57.42
2023-05-05T03:39:24.069Z,57.87
2023-05-05T03:41:51.759Z,57.92
2023-05-05T03:44:19.453Z,57.77
2023-05-05T03:46:48.470Z,58.05
2023-05-05T03:49:16.233Z,58.40
2023-05-05T03:51:44.196Z,58.50
2023-05-05T03:54:11.843Z,58.73
2023-05-05T03:56:39.449Z,58.70
2023-05-05T03:59:08.711Z,59.28
2023-05-05T04:01:36.445Z,59.34
2023-05-05T04:04:05.804Z,59.23
2023-05-05T04:06:33.501Z,59.62
2023-05-05T04:09:01.197Z,59.35
2023-05-05T04:11:28.889Z,59.65
2023-05-05T04:13:56.584Z,59.48
2023-05-05T04:16:24.298Z,59.79
2023-05-05T04:18:52.010Z,59.97
2023-05-05T04:21:21.048Z,60.22
2023-05-05T04:23:49.098Z,60.23
2023-05-05T04:26:16.802Z,60.21
2023-05-05T04:28:44.541Z,60.41
2023-05-05T04:31:12.265Z,60.70
2023-05-05T04:33:39.974Z,60.53
2023-05-05T04:36:08.401Z,60.18
2023-05-05T04:38:37.681Z,60.06
2023-05-05T04:41:07.254Z,60.19
2023-05-05T04:43:34.914Z,60.29
2023-05-05T04:46:02.590Z,60.37
2023-05-05T04:48:30.342Z,60.67
2023-05-05T04:50:58.011Z,60.74
2023-05-05T04:53:25.890Z,61.12
2023-05-05T04:55:54.984Z,60.78
2023-05-05T04:58:22.583Z,60.84
2023-05-05T05:00:50.247Z,61.04
2023-05-05T05:03:17.969Z,61.39
2023-05-05T05:05:45.644Z,61.51
2023-05-05T05:08:13.347Z,61.15
2023-05-05T05:10:41.430Z,61.46
2023-05-05T05:13:12.540Z,61.47
2023-05-05T05:15:40.768Z,61.54
2023-05-05T05:18:08.452Z,61.71
2023-05-05T05:20:36.080Z,61.80
2023-05-05T05:23:04.498Z,62.15
2023-05-05T05:25:32.189Z,62.46
2023-05-05T05:28:09.643Z,62.74
2023-05-05T05:30:39.886Z,62.94
2023-05-05T05:33:07.618Z,63.36
2023-05-05T05:35:35.352Z,63.56
2023-05-05T05:38:03.059Z,63.37
2023-05-05T05:40:31.524Z,63.79
2023-05-05T05:42:59.375Z,64.05
2023-05-05T05:45:27.095Z,64.20
2023-05-05T05:47:56.317Z,64.13
2023-05-05T05:50:24.532Z,64.48
2023-05-05T05:52:52.191Z,64.73
2023-05-05T05:55:19.872Z,64.84
2023-05-05T05:57:47.603Z,64.77
2023-05-05T06:00:16.868Z,64.93
2023-05-05T06:02:44.669Z,65.21
2023-05-05T06:05:13.864Z,65.24
2023-05-05T06:07:41.564Z,65.43
2023-05-05T06:10:25.705Z,66.13
2023-05-05T06:12:54.831Z,66.06
2023-05-05T06:15:22.536Z,66.32
2023-05-05T06:17:50.158Z,66.63
2023-05-05T06:20:19.556Z,66.36
2023-05-05T06:22:47.367Z,66.68
2023-05-05T06:25:15.068Z,67.18
2023-05-05T06:27:42.783Z,67.15
2023-05-05T06:30:11.530Z,66.83
2023-05-05T06:32:39.250Z,67.23
2023-05-05T06:35:08.108Z,66.73
2023-05-05T06:37:37.180Z,67.24
2023-05-05T06:40:05.696Z,67.16
2023-05-05T06:42:33.508Z,67.32
2023-05-05T06:45:01.480Z,67.59
2023-05-05T06:47:29.170Z,67.56
2023-05-05T06:49:56.849Z,66.94
2023-05-05T06:52:24.564Z,66.97
2023-05-05T06:54:53.608Z,66.98
2023-05-05T06:57:21.372Z,67.40
2023-05-05T06:59:49.057Z,67.07
2023-05-05T07:02:17.121Z,67.39
2023-05-05T07:04:45.173Z,67.02
2023-05-05T07:07:12.907Z,66.96
2023-05-05T07:09:41.228Z,67.08
2023-05-05T07:12:10.426Z,67.59
2023-05-05T07:14:38.081Z,67.38
2023-05-05T07:17:06.355Z,67.39
2023-05-05T07:19:34.062Z,67.91
2023-05-05T07:22:01.741Z,67.65
2023-05-05T07:24:29.438Z,67.64
2023-05-05T07:26:57.420Z,67.58
2023-05-05T07:29:26.742Z,67.18
2023-05-05T07:31:54.480Z,67.71
2023-05-05T07:34:22.230Z,68.36
2023-05-05T07:36:49.948Z,67.29
2023-05-05T07:39:19.329Z,68.24
2023-05-05T07:41:47.200Z,67.86
2023-05-05T07:44:14.876Z,66.77
2023-05-05T07:46:43.890Z,67.37
2023-05-05T07:49:11.529Z,67.03
2023-05-05T07:51:39.166Z,66.87
2023-05-05T07:54:06.977Z,66.91
2023-05-05T07:56:34.755Z,66.64
2023-05-05T07:59:02.405Z,66.57
2023-05-05T08:01:30.169Z,66.81
2023-05-05T08:03:59.490Z,67.00
2023-05-05T08:06:27.800Z,66.66
2023-05-05T08:08:55.601Z,66.77
2023-05-05T08:11:23.338Z,66.83
2023-05-05T08:13:51.051Z,67.17
2023-05-05T08:16:19.098Z,67.64
2023-05-05T08:18:46.874Z,67.50
2023-05-05T08:21:16.030Z,67.33
2023-05-05T08:23:43.741Z,66.17
2023-05-05T08:26:11.578Z,66.20
2023-05-05T08:28:39.327Z,66.31
2023-05-05T08:31:07.764Z,66.06
2023-05-05T08:33:35.546Z,67.33
2023-05-05T08:36:03.205Z,68.37
2023-05-05T08:38:32.262Z,67.14
2023-05-05T08:41:00.020Z,64.96
2023-05-05T08:43:27.707Z,63.42
2023-05-05T08:45:56.307Z,64.43
2023-05-05T08:48:24.530Z,63.11
2023-05-05T08:50:57.998Z,62.62
2023-05-05T08:53:40.088Z,62.84
2023-05-05T08:56:08.790Z,62.65
2023-05-05T08:58:38.126Z,61.92
2023-05-05T09:01:07.269Z,62.72
2023-05-05T09:03:35.649Z,62.85
2023-05-05T09:06:03.651Z,59.60
2023-05-05T09:08:32.622Z,59.95
2023-05-05T09:11:01.997Z,61.85
2023-05-05T09:13:31.228Z,60.50
2023-05-05T09:15:59.137Z,59.49
2023-05-05T09:18:27.196Z,59.67
2023-05-05T09:20:55.444Z,59.94
2023-05-05T09:25:01.029Z,59.72
2023-05-05T09:27:28.827Z,59.41
2023-05-05T09:29:56.711Z,59.32
2023-05-05T09:32:24.461Z,59.84
2023-05-05T09:34:59.153Z,59.27
2023-05-05T09:37:30.957Z,59.41
2023-05-05T09:40:01.588Z,59.21
2023-05-05T09:42:29.274Z,60.00
2023-05-05T09:44:59.787Z,59.60
2023-05-05T09:47:35.549Z,58.55
2023-05-05T09:50:04.179Z,57.28
2023-05-05T09:52:32.092Z,58.49
2023-05-05T09:55:01.145Z,57.21
2023-05-05T09:57:30.458Z,56.96
2023-05-05T09:59:58.913Z,57.12
2023-05-05T10:02:34.046Z,56.56
2023-05-05T10:05:06.505Z,57.50
2023-05-05T10:07:34.724Z,56.97
2023-05-05T10:10:04.403Z,56.71
2023-05-05T10:12:32.790Z,56.20
2023-05-05T10:15:02.678Z,56.02
2023-05-05T10:17:32.780Z,55.39
2023-05-05T10:20:01.985Z,56.27
2023-05-05T10:22:30.702Z,55.89
2023-05-05T10:24:59.343Z,54.25
2023-05-05T10:27:29.858Z,54.70
2023-05-05T10:30:03.772Z,54.54
2023-05-05T10:32:56.962Z,54.13
2023-05-05T10:35:23.154Z,53.85
2023-05-05T10:37:51.107Z,53.45
2023-05-05T10:40:18.846Z,52.60
2023-05-05T10:42:50.047Z,52.75
2023-05-05T10:45:17.788Z,52.83
2023-05-05T10:47:45.609Z,53.14
2023-05-05T10:50:17.528Z,52.99
2023-05-05T10:52:49.131Z,53.21
2023-05-05T10:55:18.510Z,53.05
2023-05-05T10:57:47.803Z,52.69
2023-05-05T11:00:50.040Z,52.53
2023-05-05T11:03:21.960Z,52.89
2023-05-05T11:06:14.715Z,52.79
2023-05-05T11:08:43.953Z,52.76
2023-05-05T11:11:12.584Z,52.65
2023-05-05T11:13:41.951Z,53.22
2023-05-05T11:16:44.614Z,52.82
2023-05-05T11:19:48.957Z,53.81
2023-05-05T11:22:17.577Z,57.85
2023-05-05T11:24:45.698Z,63.97
2023-05-05T11:27:13.493Z,63.95
2023-05-05T11:30:08.209Z,62.48
2023-05-05T11:32:36.169Z,65.03
2023-05-05T11:35:04.233Z,67.07
2023-05-05T11:37:31.894Z,68.27
2023-05-05T11:40:07.100Z,70.75
2023-05-05T11:42:35.099Z,71.92
2023-05-05T11:45:03.392Z,74.90
2023-05-05T11:47:35.566Z,74.69
2023-05-05T11:50:21.698Z,74.02
2023-05-05T11:52:49.482Z,75.91
2023-05-05T11:55:22.055Z,73.79
2023-05-05T11:57:49.862Z,74.95
2023-05-05T12:00:18.346Z,76.27
2023-05-05T12:02:47.675Z,76.89
2023-05-05T12:05:21.195Z,79.41
2023-05-05T12:07:49.041Z,77.81
2023-05-05T12:10:23.823Z,77.39
2023-05-05T12:12:53.178Z,75.17
2023-05-05T12:15:29.663Z,74.83
2023-05-05T12:18:01.454Z,72.96
2023-05-05T12:20:30.877Z,71.48
2023-05-05T12:23:01.517Z,70.61
2023-05-05T12:25:36.192Z,72.27
2023-05-05T12:28:03.868Z,73.92
2023-05-05T12:30:31.590Z,73.02
2023-05-05T12:33:04.188Z,74.48
2023-05-05T12:35:32.062Z,73.33
2023-05-05T12:37:59.918Z,73.11
2023-05-05T12:40:47.975Z,71.83
2023-05-05T12:43:26.582Z,71.65
2023-05-05T12:46:05.388Z,71.11
2023-05-05T12:48:34.920Z,71.96
2023-05-05T12:51:15.228Z,72.56
2023-05-05T12:53:42.910Z,73.81
2023-05-05T12:56:36.054Z,67.43
2023-05-05T12:59:04.988Z,67.82
2023-05-05T13:01:33.055Z,68.58
2023-05-05T13:04:15.250Z,68.55
2023-05-05T13:06:44.280Z,69.13
2023-05-05T13:09:24.119Z,71.19
2023-05-05T13:11:51.848Z,72.77
2023-05-05T13:14:19.673Z,74.89
2023-05-05T13:16:47.372Z,75.67
2023-05-05T13:19:16.460Z,77.00
2023-05-05T13:21:44.216Z,77.86
2023-05-05T13:24:22.930Z,77.71
2023-05-05T13:26:56.567Z,78.23
2023-05-05T13:29:28.363Z,78.41
2023-05-05T13:31:58.279Z,78.96
2023-05-05T13:34:28.287Z,79.58
2023-05-05T13:36:56.262Z,80.29
2023-05-05T13:39:24.013Z,80.49
2023-05-05T13:41:51.784Z,79.87
2023-05-05T13:44:19.524Z,80.02
2023-05-05T13:46:47.334Z,80.48
2023-05-05T13:49:15.148Z,80.67
2023-05-05T13:51:45.287Z,80.56
2023-05-05T13:54:13.231Z,81.60
2023-05-05T13:56:41.036Z,81.52
2023-05-05T13:59:09.093Z,82.42
2023-05-05T14:01:37.309Z,83.32
2023-05-05T14:04:06.104Z,83.32
2023-05-05T14:06:34.103Z,83.08
2023-05-05T14:09:05.894Z,82.54
2023-05-05T14:11:33.899Z,83.54
2023-05-05T14:14:01.782Z,83.17
2023-05-05T14:16:29.642Z,84.30
2023-05-05T14:18:57.267Z,84.49
2023-05-05T14:21:24.968Z,84.47
2023-05-05T14:23:52.687Z,84.31
2023-05-05T14:26:21.784Z,84.42
2023-05-05T14:28:50.220Z,84.11
2023-05-05T14:31:18.526Z,83.92
2023-05-05T14:33:46.198Z,83.99
2023-05-05T14:36:14.285Z,84.64
2023-05-05T14:38:42.936Z,84.61
2023-05-05T14:41:11.403Z,85.08
2023-05-05T14:43:40.966Z,85.02
2023-05-05T14:46:08.709Z,84.49
2023-05-05T14:48:36.591Z,84.95
2023-05-05T14:51:04.622Z,84.90
2023-05-05T14:53:32.368Z,84.75
2023-05-05T14:56:00.017Z,85.50
2023-05-05T14:58:27.732Z,85.37
2023-05-05T15:00:56.961Z,85.37
2023-05-05T15:03:24.891Z,85.26
2023-05-05T15:05:52.618Z,85.63
2023-05-05T15:08:20.388Z,86.05
2023-05-05T15:10:48.113Z,85.86
2023-05-05T15:13:16.020Z,86.34
2023-05-05T15:15:45.074Z,86.42
2023-05-05T15:18:14.232Z,86.48
2023-05-05T15:20:41.958Z,86.63
2023-05-05T15:24:01.438Z,86.49
2023-05-05T15:26:29.045Z,85.85
2023-05-05T15:28:56.632Z,86.42
2023-05-05T15:31:24.324Z,85.12
2023-05-05T15:33:52.056Z,85.36
2023-05-05T15:36:22.481Z,84.98
2023-05-05T15:38:50.387Z,84.74
2023-05-05T15:41:19.481Z,85.14
2023-05-05T15:43:47.178Z,85.26
2023-05-05T15:46:14.821Z,84.42
2023-05-05T15:48:42.580Z,84.48
2023-05-05T15:51:12.577Z,81.25
2023-05-05T15:53:40.322Z,80.82
2023-05-05T15:56:08.244Z,82.29
2023-05-05T15:58:37.524Z,82.90
2023-05-05T16:01:05.329Z,79.41
2023-05-05T16:03:33.116Z,77.82
2023-05-05T16:06:00.786Z,78.74
2023-05-05T16:08:29.090Z,78.73
2023-05-05T16:10:56.980Z,78.72
2023-05-05T16:13:24.756Z,75.94
2023-05-05T16:15:53.841Z,75.09
2023-05-05T16:18:21.507Z,74.78
2023-05-05T16:20:49.921Z,74.63
2023-05-05T16:23:17.796Z,76.21
2023-05-05T16:25:45.607Z,76.93
2023-05-05T16:28:13.325Z,77.86
2023-05-05T16:30:42.768Z,74.45
2023-05-05T16:33:11.926Z,76.04
2023-05-05T16:35:39.741Z,77.70
2023-05-05T16:38:07.485Z,78.90
2023-05-05T16:40:37.458Z,80.54
2023-05-05T16:43:05.386Z,78.53
2023-05-05T16:45:33.060Z,76.80
2023-05-05T16:48:00.778Z,73.62
2023-05-05T16:50:29.912Z,76.61
2023-05-05T16:52:57.869Z,76.95
2023-05-05T16:55:25.887Z,76.28
2023-05-05T16:57:53.705Z,74.22
2023-05-05T17:00:21.693Z,74.33
2023-05-05T17:02:50.045Z,75.95
2023-05-05T17:05:18.411Z,73.94
2023-05-05T17:07:48.285Z,72.00
2023-05-05T17:10:16.151Z,71.11
2023-05-05T17:12:43.925Z,72.53
2023-05-05T17:15:11.962Z,72.23
2023-05-05T17:17:41.570Z,72.90
2023-05-05T17:20:12.276Z,73.02
2023-05-05T17:22:40.351Z,73.52
2023-05-05T17:25:10.906Z,73.55
2023-05-05T17:27:39.217Z,73.98
2023-05-05T17:30:08.255Z,72.47
2023-05-05T17:32:36.095Z,73.46
2023-05-05T17:35:03.978Z,74.09
2023-05-05T17:37:32.260Z,74.66
2023-05-05T17:39:59.977Z,74.86
2023-05-05T17:42:32.956Z,75.67
2023-05-05T17:45:00.800Z,75.71
2023-05-05T17:47:28.715Z,75.81
2023-05-05T17:49:57.924Z,76.16
2023-05-05T17:52:26.136Z,76.34
2023-05-05T17:54:53.808Z,76.60
2023-05-05T17:57:22.736Z,76.51
2023-05-05T17:59:53.615Z,77.83
2023-05-05T18:02:21.789Z,77.88
2023-05-05T18:04:49.612Z,76.65
2023-05-05T18:07:17.306Z,76.33
2023-05-05T18:09:45.007Z,75.82
2023-05-05T18:12:12.699Z,74.46
2023-05-05T18:14:40.470Z,76.00
2023-05-05T18:17:09.540Z,73.72
2023-05-05T18:19:38.219Z,73.44
2023-05-05T18:22:06.369Z,74.68
2023-05-05T18:24:34.140Z,74.75
2023-05-05T18:27:01.757Z,73.87
2023-05-05T18:29:29.481Z,74.76
2023-05-05T18:31:57.214Z,74.81
2023-05-05T18:34:26.379Z,73.84
2023-05-05T18:36:55.094Z,75.03
2023-05-05T18:39:22.752Z,75.08
2023-05-05T18:41:50.654Z,75.89
2023-05-05T18:44:19.463Z,74.68
2023-05-05T18:46:47.933Z,75.98
2023-05-05T18:49:16.312Z,78.56
2023-05-05T18:51:45.370Z,79.68
2023-05-05T18:54:13.138Z,80.51
2023-05-05T18:56:40.893Z,80.52
2023-05-05T18:59:08.599Z,81.09
2023-05-05T19:01:36.341Z,81.71
2023-05-05T19:04:05.425Z,81.56
2023-05-05T19:06:36.275Z,82.00
2023-05-05T19:09:05.445Z,82.30
2023-05-05T19:11:33.055Z,82.45
2023-05-05T19:14:00.678Z,82.88
2023-05-05T19:16:30.047Z,82.47
2023-05-05T19:18:58.789Z,83.26
2023-05-05T19:21:27.461Z,83.08
2023-05-05T19:23:55.132Z,82.95
2023-05-05T19:26:25.011Z,82.84
2023-05-05T19:28:55.186Z,83.12
2023-05-05T19:31:27.410Z,83.26
2023-05-05T19:34:05.275Z,83.08
2023-05-05T19:36:33.377Z,82.75
2023-05-05T19:39:01.645Z,83.23
2023-05-05T19:41:30.845Z,83.36
2023-05-05T19:43:58.644Z,83.75
2023-05-05T19:46:26.870Z,83.64
2023-05-05T19:48:54.673Z,83.14
2023-05-05T19:51:22.339Z,83.65
2023-05-05T19:53:50.400Z,83.86
2023-05-05T19:56:18.083Z,83.64
2023-05-05T19:58:56.496Z,83.65
2023-05-05T20:01:24.586Z,83.93
2023-05-05T20:03:54.335Z,83.41
2023-05-05T20:06:23.871Z,83.08
2023-05-05T20:08:51.589Z,83.42
2023-05-05T20:11:21.089Z,83.34
2023-05-05T20:13:49.246Z,83.45
2023-05-05T20:16:18.437Z,83.43
2023-05-05T20:18:46.281Z,84.03
2023-05-05T20:21:14.015Z,83.96
2023-05-05T20:23:43.006Z,84.00
2023-05-05T20:26:11.321Z,84.28
2023-05-05T20:28:40.829Z,84.19
2023-05-05T20:31:10.879Z,84.41
2023-05-05T20:33:40.086Z,83.88
2023-05-05T20:36:08.168Z,83.73
2023-05-05T20:38:35.880Z,84.08
2023-05-05T20:41:03.601Z,83.46
2023-05-05T20:43:31.290Z,83.36
2023-05-05T20:45:58.987Z,83.28
2023-05-05T20:48:26.856Z,82.83
2023-05-05T20:50:55.940Z,83.24
2023-05-05T20:53:25.365Z,83.20
2023-05-05T20:55:53.035Z,83.11
2023-05-05T20:58:20.971Z,83.35
2023-05-05T21:00:48.746Z,83.09
2023-05-05T21:03:16.492Z,82.87
2023-05-05T21:05:44.707Z,82.93
2023-05-05T21:08:13.808Z,82.97
2023-05-05T21:10:41.495Z,83.17
2023-05-05T21:13:09.247Z,83.49
2023-05-05T21:15:37.434Z,83.25
2023-05-05T21:18:05.583Z,83.51
2023-05-05T21:20:33.283Z,83.07
2023-05-05T21:23:01.017Z,82.84
2023-05-05T21:25:30.605Z,82.31
2023-05-05T21:27:58.301Z,82.27
2023-05-05T21:30:26.148Z,82.65
2023-05-05T21:32:53.957Z,82.73
2023-05-05T21:35:21.859Z,82.99
2023-05-05T21:37:50.020Z,83.02
2023-05-05T21:40:17.777Z,82.79
2023-05-05T21:42:46.841Z,82.63
2023-05-05T21:45:14.526Z,82.56
2023-05-05T21:47:42.306Z,82.51
2023-05-05T21:50:11.036Z,82.58
2023-05-05T21:52:38.972Z,83.09
2023-05-05T21:55:07.577Z,82.88
2023-05-05T21:57:35.259Z,82.93
2023-05-05T22:00:05.655Z,82.88
2023-05-05T22:02:34.278Z,82.42
2023-05-05T22:05:01.998Z,81.97
2023-05-05T22:07:31.017Z,82.31
2023-05-05T22:09:59.365Z,82.24
2023-05-05T22:12:27.028Z,81.96
2023-05-05T22:14:54.757Z,82.17
2023-05-05T22:17:23.901Z,81.99
2023-05-05T22:19:51.787Z,82.55
2023-05-05T22:22:19.469Z,82.15
2023-05-05T22:24:47.090Z,82.33
2023-05-05T22:27:14.807Z,82.26
2023-05-05T22:29:42.499Z,82.17
2023-05-05T22:32:10.154Z,82.56
2023-05-05T22:34:39.264Z,82.28
2023-05-05T22:37:07.408Z,82.67
2023-05-05T22:39:35.115Z,82.30
2023-05-05T22:42:03.702Z,82.10
2023-05-05T22:44:31.378Z,81.89
2023-05-05T22:46:59.259Z,82.11
2023-05-05T22:49:27.716Z,82.18
2023-05-05T22:51:57.220Z,82.20
2023-05-05T22:54:24.983Z,81.96
2023-05-05T22:56:52.725Z,81.78
2023-05-05T22:59:20.412Z,81.87
2023-05-05T23:01:48.083Z,81.46
2023-05-05T23:04:15.798Z,81.50
2023-05-05T23:06:44.874Z,81.26
2023-05-05T23:09:14.026Z,81.13
2023-05-05T23:11:41.699Z,81.04
2023-05-05T23:14:09.443Z,81.12
2023-05-05T23:16:37.122Z,80.55
2023-05-05T23:19:04.768Z,80.45
2023-05-05T23:21:36.273Z,80.39
2023-05-05T23:24:10.411Z,80.91
2023-05-05T23:26:39.468Z,80.29
2023-05-05T23:29:07.302Z,80.53
2023-05-05T23:31:35.256Z,80.71
2023-05-05T23:34:03.479Z,80.40
2023-05-05T23:36:31.200Z,80.60
2023-05-05T23:38:58.880Z,81.17
2023-05-05T23:41:26.660Z,81.71
2023-05-05T23:43:55.688Z,81.79
2023-05-05T23:46:23.986Z,81.64
2023-05-05T23:48:52.028Z,81.80
2023-05-05T23:51:19.716Z,81.55
2023-05-05T23:53:47.444Z,81.75
2023-05-05T23:56:15.254Z,82.12
2023-05-05T23:58:42.927Z,82.05
